createdAt,value
2018-12-20T00:01:18.499Z,97431.42
2018-12-20T00:03:48.004Z,97432.27
2018-12-20T00:06:17.419Z,97437.63
2018-12-20T00:08:46.801Z,97447.60
2018-12-20T00:11:16.197Z,97441.39
2018-12-20T00:13:45.608Z,97439.08
2018-12-20T00:16:14.933Z,97443.20
2018-12-20T00:18:44.358Z,97432.94
2018-12-20T00:21:13.759Z,97433.98
2018-12-20T00:23:43.106Z,97433.52
2018-12-20T00:26:12.679Z,97438.88
2018-12-20T00:28:42.076Z,97443.02
2018-12-20T00:31:13.713Z,97437.24
2018-12-20T00:33:42.962Z,97440.03
2018-12-20T00:36:12.309Z,97440.03
2018-12-20T00:38:41.661Z,97427.02
2018-12-20T00:41:11.067Z,97431.52
2018-12-20T00:43:40.499Z,97425.37
2018-12-20T00:46:09.974Z,97422.69
2018-12-20T00:48:39.616Z,97423.63
2018-12-20T00:51:08.978Z,97412.06
2018-12-20T00:53:38.443Z,97414.81
2018-12-20T00:56:07.891Z,97419.23
2018-12-20T00:58:37.262Z,97423.73
2018-12-20T01:01:06.665Z,97417.50
2018-12-20T01:03:36.040Z,97412.70
2018-12-20T01:06:05.515Z,97411.86
2018-12-20T01:08:34.947Z,97411.86
2018-12-20T01:11:04.314Z,97407.91
2018-12-20T01:13:33.950Z,97408.89
2018-12-20T01:16:03.586Z,97423.64
2018-12-20T01:18:33.005Z,97415.59
2018-12-20T01:21:03.481Z,97409.45
2018-12-20T01:23:32.971Z,97416.64
2018-12-20T01:26:02.392Z,97412.25
2018-12-20T01:28:31.968Z,97415.87
2018-12-20T01:31:01.488Z,97420.36
2018-12-20T01:33:30.981Z,97428.81
2018-12-20T01:36:00.454Z,97425.73
2018-12-20T01:38:29.893Z,97420.36
2018-12-20T01:40:59.778Z,97430.73
2018-12-20T01:43:29.834Z,97425.36
2018-12-20T01:45:59.346Z,97426.81
2018-12-20T01:48:29.022Z,97427.75
2018-12-20T01:50:58.699Z,97429.49
2018-12-20T01:53:28.298Z,97429.96
2018-12-20T01:55:57.664Z,97429.19
2018-12-20T01:58:27.120Z,97419.80
2018-12-20T02:00:56.618Z,97421.25
2018-12-20T02:03:26.133Z,97417.22
2018-12-20T02:05:55.498Z,97423.16
2018-12-20T02:08:24.887Z,97437.05
2018-12-20T02:10:54.215Z,97443.75
2018-12-20T02:13:23.639Z,97434.00
2018-12-20T02:15:53.143Z,97426.41
2018-12-20T02:18:22.526Z,97414.81
2018-12-20T02:20:51.863Z,97426.52
2018-12-20T02:23:21.232Z,97435.51
2018-12-20T02:25:50.713Z,97438.59
2018-12-20T02:28:20.181Z,97444.02
2018-12-20T02:30:49.554Z,97448.05
2018-12-20T02:33:19.047Z,97442.75
2018-12-20T02:35:49.478Z,97426.66
2018-12-20T02:38:19.123Z,97430.20
2018-12-20T02:40:48.668Z,97423.61
2018-12-20T02:43:18.139Z,97424.95
2018-12-20T02:45:47.476Z,97426.36
2018-12-20T02:48:16.988Z,97439.77
2018-12-20T02:50:46.640Z,97432.22
2018-12-20T02:53:16.183Z,97434.41
2018-12-20T02:55:45.665Z,97426.92
2018-12-20T02:58:14.987Z,97431.45
2018-12-20T03:00:44.592Z,97423.77
2018-12-20T03:03:14.262Z,97414.95
2018-12-20T03:05:43.824Z,97416.77
2018-12-20T03:08:13.459Z,97406.55
2018-12-20T03:10:43.078Z,97393.13
2018-12-20T03:13:12.695Z,97387.77
2018-12-20T03:15:42.127Z,97387.77
2018-12-20T03:18:11.679Z,97385.55
2018-12-20T03:20:41.133Z,97387.77
2018-12-20T03:23:10.481Z,97395.88
2018-12-20T03:25:39.964Z,97386.13
2018-12-20T03:28:09.632Z,97391.96
2018-12-20T03:30:39.105Z,97396.45
2018-12-20T03:33:10.484Z,97392.94
2018-12-20T03:35:40.078Z,97390.25
2018-12-20T03:38:09.636Z,97379.52
2018-12-20T03:40:39.182Z,97377.78
2018-12-20T03:43:08.798Z,97372.05
2018-12-20T03:45:38.340Z,97372.05
2018-12-20T03:48:07.867Z,97372.05
2018-12-20T03:50:37.289Z,97375.20
2018-12-20T03:53:06.673Z,97380.56
2018-12-20T03:55:36.129Z,97381.91
2018-12-20T03:58:05.474Z,97373.46
2018-12-20T04:00:34.816Z,97378.82
2018-12-20T04:03:04.147Z,97367.73
2018-12-20T04:05:33.866Z,97374.43
2018-12-20T04:08:03.330Z,97380.16
2018-12-20T04:10:32.720Z,97386.50
2018-12-20T04:13:03.122Z,97385.27
2018-12-20T04:15:37.721Z,97381.24
2018-12-20T04:18:03.991Z,97387.08
2018-12-20T04:20:33.399Z,97384.49
2018-12-20T04:23:02.928Z,97377.39
2018-12-20T04:25:32.265Z,97376.15
2018-12-20T04:28:01.624Z,97375.17
2018-12-20T04:30:30.963Z,97378.73
2018-12-20T04:33:00.401Z,97379.30
2018-12-20T04:35:29.824Z,97386.00
2018-12-20T04:37:59.180Z,97390.12
2018-12-20T04:40:28.720Z,97386.00
2018-12-20T04:42:58.289Z,97391.37
2018-12-20T04:45:27.676Z,97385.23
2018-12-20T04:47:57.109Z,97392.41
2018-12-20T04:50:26.699Z,97392.41
2018-12-20T04:52:56.328Z,97390.23
2018-12-20T04:55:25.870Z,97386.58
2018-12-20T04:57:56.632Z,97379.10
2018-12-20T05:00:26.046Z,97374.71
2018-12-20T05:02:55.410Z,97386.20
2018-12-20T05:05:24.727Z,97388.12
2018-12-20T05:07:54.216Z,97392.20
2018-12-20T05:10:23.720Z,97384.09
2018-12-20T05:12:53.122Z,97383.69
2018-12-20T05:15:22.443Z,97383.22
2018-12-20T05:17:51.806Z,97384.67
2018-12-20T05:20:21.169Z,97381.22
2018-12-20T05:22:50.630Z,97380.24
2018-12-20T05:25:20.192Z,97384.27
2018-12-20T05:30:02.940Z,97391.94
2018-12-20T05:32:32.629Z,97393.65
2018-12-20T05:35:02.212Z,97394.63
2018-12-20T05:37:31.738Z,97398.08
2018-12-20T05:40:01.370Z,97401.69
2018-12-20T05:42:30.934Z,97399.78
2018-12-20T05:45:00.414Z,97405.34
2018-12-20T05:47:29.865Z,97405.64
2018-12-20T05:49:59.329Z,97414.46
2018-12-20T05:52:28.760Z,97418.48
2018-12-20T05:54:58.124Z,97427.30
2018-12-20T05:57:27.443Z,97432.66
2018-12-20T05:59:57.110Z,97439.73
2018-12-20T06:02:26.444Z,97438.80
2018-12-20T06:04:55.769Z,97439.17
2018-12-20T06:07:25.281Z,97441.78
2018-12-20T06:09:54.699Z,97456.91
2018-12-20T06:12:24.066Z,97459.48
2018-12-20T06:14:53.488Z,97458.55
2018-12-20T06:17:23.681Z,97462.47
2018-12-20T06:19:53.291Z,97464.58
2018-12-20T06:22:22.720Z,97466.80
2018-12-20T06:24:52.271Z,97472.06
2018-12-20T06:27:21.596Z,97479.23
2018-12-20T06:29:50.955Z,97478.30
2018-12-20T06:32:20.300Z,97483.19
2018-12-20T06:34:49.621Z,97492.08
2018-12-20T06:37:19.012Z,97495.53
2018-12-20T06:39:48.331Z,97497.75
2018-12-20T06:42:17.655Z,97503.52
2018-12-20T06:44:47.008Z,97504.31
2018-12-20T06:47:17.366Z,97507.13
2018-12-20T06:49:46.856Z,97516.05
2018-12-20T06:52:16.184Z,97512.97
2018-12-20T06:54:45.702Z,97512.50
2018-12-20T06:57:15.094Z,97514.81
2018-12-20T06:59:44.589Z,97516.52
2018-12-20T07:02:13.941Z,97513.77
2018-12-20T07:04:44.360Z,97516.05
2018-12-20T07:07:13.760Z,97528.12
2018-12-20T07:09:43.212Z,97533.02
2018-12-20T07:12:12.689Z,97537.28
2018-12-20T07:14:42.076Z,97534.03
2018-12-20T07:17:11.743Z,97529.03
2018-12-20T07:19:41.436Z,97531.15
2018-12-20T07:22:10.749Z,97533.73
2018-12-20T07:24:40.129Z,97544.87
2018-12-20T07:27:09.452Z,97539.50
2018-12-20T07:29:38.848Z,97542.09
2018-12-20T07:32:08.859Z,97546.02
2018-12-20T07:34:38.232Z,97552.25
2018-12-20T07:37:08.949Z,97553.59
2018-12-20T07:39:39.381Z,97551.01
2018-12-20T07:42:09.133Z,97560.47
2018-12-20T07:44:38.504Z,97557.72
2018-12-20T07:47:07.858Z,97563.86
2018-12-20T07:49:37.225Z,97559.83
2018-12-20T07:52:06.636Z,97561.84
2018-12-20T07:54:35.974Z,97561.37
2018-12-20T07:57:05.314Z,97562.22
2018-12-20T07:59:34.656Z,97572.88
2018-12-20T08:02:04.155Z,97565.77
2018-12-20T08:04:33.544Z,97566.17
2018-12-20T08:07:02.896Z,97567.11
2018-12-20T08:09:32.223Z,97569.80
2018-12-20T08:12:01.611Z,97568.45
2018-12-20T08:14:30.951Z,97572.48
2018-12-20T08:17:00.318Z,97563.96
2018-12-20T08:19:36.197Z,97564.53
2018-12-20T08:22:02.264Z,97566.04
2018-12-20T08:24:31.984Z,97572.28
2018-12-20T08:27:01.351Z,97572.58
2018-12-20T08:29:30.659Z,97564.70
2018-12-20T08:32:00.020Z,97565.67
2018-12-20T08:34:29.336Z,97563.86
2018-12-20T08:36:58.683Z,97563.92
2018-12-20T08:39:28.021Z,97570.63
2018-12-20T08:41:57.376Z,97572.38
2018-12-20T08:44:26.706Z,97569.69
2018-12-20T08:46:56.064Z,97566.61
2018-12-20T08:49:25.379Z,97566.61
2018-12-20T08:51:55.779Z,97566.61
2018-12-20T08:54:25.111Z,97567.58
2018-12-20T08:56:54.427Z,97571.97
2018-12-20T08:59:23.752Z,97570.63
2018-12-20T09:01:53.068Z,97568.92
2018-12-20T09:04:22.395Z,97571.60
2018-12-20T09:06:51.711Z,97569.80
2018-12-20T09:09:21.044Z,97570.63
2018-12-20T09:11:50.387Z,97576.00
2018-12-20T09:14:19.740Z,97575.16
2018-12-20T09:16:49.073Z,97579.19
2018-12-20T09:19:18.407Z,97570.63
2018-12-20T09:21:47.733Z,97572.08
2018-12-20T09:24:17.068Z,97567.95
2018-12-20T09:26:46.388Z,97573.72
2018-12-20T09:29:15.744Z,97567.88
2018-12-20T09:31:45.308Z,97561.24
2018-12-20T09:34:14.889Z,97558.95
2018-12-20T09:36:44.219Z,97561.64
2018-12-20T09:39:13.848Z,97563.45
2018-12-20T09:41:43.187Z,97561.24
2018-12-20T09:44:12.564Z,97561.17
2018-12-20T09:46:41.895Z,97562.02
2018-12-20T09:49:11.319Z,97556.28
2018-12-20T09:51:40.652Z,97569.13
2018-12-20T09:54:10.008Z,97561.55
2018-12-20T09:56:39.347Z,97567.88
2018-12-20T09:59:08.704Z,97562.89
2018-12-20T10:01:38.040Z,97561.17
2018-12-20T10:04:07.409Z,97557.15
2018-12-20T10:06:36.768Z,97562.41
2018-12-20T10:09:07.859Z,97550.70
2018-12-20T10:11:37.225Z,97559.73
2018-12-20T10:14:06.596Z,97565.09
2018-12-20T10:16:35.952Z,97561.55
2018-12-20T10:19:05.285Z,97558.39
2018-12-20T10:21:34.649Z,97557.52
2018-12-20T10:24:03.991Z,97556.58
2018-12-20T10:26:33.354Z,97557.15
2018-12-20T10:29:02.684Z,97549.47
2018-12-20T10:31:32.160Z,97551.28
2018-12-20T10:34:01.490Z,97552.15
2018-12-20T10:36:30.845Z,97541.89
2018-12-20T10:39:00.215Z,97542.29
2018-12-20T10:41:29.574Z,97537.96
2018-12-20T10:43:59.920Z,97541.52
2018-12-20T10:46:29.283Z,97538.43
2018-12-20T10:48:58.655Z,97537.39
2018-12-20T10:51:28.036Z,97532.50
2018-12-20T10:53:57.360Z,97523.98
2018-12-20T10:56:26.700Z,97526.19
2018-12-20T10:58:56.024Z,97523.98
2018-12-20T11:01:30.540Z,97521.30
2018-12-20T11:04:05.036Z,97516.80
2018-12-20T11:06:39.628Z,97504.31
2018-12-20T11:09:14.229Z,97502.98
2018-12-20T11:11:48.776Z,97506.23
2018-12-20T11:14:18.108Z,97510.66
2018-12-20T11:16:47.436Z,97507.50
2018-12-20T11:19:16.822Z,97507.50
2018-12-20T11:21:46.144Z,97511.03
2018-12-20T11:24:15.718Z,97504.82
2018-12-20T11:26:45.124Z,97505.29
2018-12-20T11:29:14.500Z,97503.48
2018-12-20T11:31:43.815Z,97503.38
2018-12-20T11:34:13.171Z,97506.06
2018-12-20T11:36:42.489Z,97507.98
2018-12-20T11:39:11.844Z,97505.29
2018-12-20T11:41:41.160Z,97498.69
2018-12-20T11:44:10.507Z,97502.61
2018-12-20T11:46:39.848Z,97495.90
2018-12-20T11:49:09.219Z,97495.03
2018-12-20T11:51:38.563Z,97501.27
2018-12-20T11:54:07.924Z,97496.77
2018-12-20T11:56:37.253Z,97497.61
2018-12-20T11:59:06.620Z,97494.56
2018-12-20T12:01:36.908Z,97493.69
2018-12-20T12:04:06.268Z,97495.90
2018-12-20T12:06:35.592Z,97489.19
2018-12-20T12:09:09.808Z,97491.00
2018-12-20T12:11:39.429Z,97491.41
2018-12-20T12:14:09.055Z,97497.71
2018-12-20T12:16:38.395Z,97492.75
2018-12-20T12:19:08.947Z,97487.38
2018-12-20T12:21:38.271Z,97486.51
2018-12-20T12:24:08.989Z,97484.77
2018-12-20T12:26:38.300Z,97486.61
2018-12-20T12:29:09.300Z,97478.16
2018-12-20T12:31:38.764Z,97478.92
2018-12-20T12:34:09.472Z,97480.67
2018-12-20T12:36:38.944Z,97471.85
2018-12-20T12:39:09.305Z,97477.59
2018-12-20T12:41:38.669Z,97476.25
2018-12-20T12:44:09.491Z,97480.73
2018-12-20T12:46:40.392Z,97478.56
2018-12-20T12:49:09.764Z,97474.13
2018-12-20T12:51:39.164Z,97477.69
2018-12-20T12:54:08.944Z,97461.59
2018-12-20T12:56:38.316Z,97462.06
2018-12-20T12:59:08.845Z,97467.83
2018-12-20T13:01:38.205Z,97466.95
2018-12-20T13:04:09.072Z,97464.38
2018-12-20T13:06:38.427Z,97458.03
2018-12-20T13:09:10.832Z,97457.66
2018-12-20T13:11:40.203Z,97453.64
2018-12-20T13:14:09.562Z,97450.95
2018-12-20T13:16:40.847Z,97447.77
2018-12-20T13:19:10.723Z,97453.64
2018-12-20T13:21:40.084Z,97459.58
2018-12-20T13:24:09.470Z,97460.34
2018-12-20T13:26:38.828Z,97458.14
2018-12-20T13:29:08.192Z,97461.59
2018-12-20T13:31:37.544Z,97456.33
2018-12-20T13:34:06.932Z,97464.84
2018-12-20T13:36:36.283Z,97469.34
2018-12-20T13:39:07.635Z,97472.49
2018-12-20T13:41:36.988Z,97471.55
2018-12-20T13:44:06.379Z,97479.70
2018-12-20T13:46:35.715Z,97482.39
2018-12-20T13:49:06.049Z,97484.66
2018-12-20T13:51:35.405Z,97488.69
2018-12-20T13:54:05.378Z,97495.80
2018-12-20T13:56:35.407Z,97502.61
2018-12-20T13:59:04.763Z,97502.88
2018-12-20T14:01:34.131Z,97500.30
2018-12-20T14:04:03.489Z,97497.61
2018-12-20T14:06:32.891Z,97496.73
2018-12-20T14:09:02.340Z,97502.00
2018-12-20T14:11:32.807Z,97503.45
2018-12-20T14:14:02.171Z,97508.81
2018-12-20T14:16:31.531Z,97503.95
2018-12-20T14:19:00.883Z,97516.39
2018-12-20T14:21:30.228Z,97522.23
2018-12-20T14:23:59.629Z,97517.84
2018-12-20T14:26:28.991Z,97527.23
2018-12-20T14:28:58.422Z,97524.08
2018-12-20T14:31:27.780Z,97522.73
2018-12-20T14:33:58.141Z,97527.23
2018-12-20T14:36:27.516Z,97526.76
2018-12-20T14:38:56.860Z,97525.41
2018-12-20T14:41:26.224Z,97524.64
2018-12-20T14:43:55.956Z,97527.70
2018-12-20T14:46:25.324Z,97525.88
2018-12-20T14:48:54.678Z,97516.39
2018-12-20T14:51:24.089Z,97535.27
2018-12-20T14:53:53.468Z,97545.13
2018-12-20T14:56:22.854Z,97543.42
2018-12-20T14:58:52.213Z,97548.29
2018-12-20T15:01:21.593Z,97551.47
2018-12-20T15:03:50.952Z,97555.00
2018-12-20T15:06:20.300Z,97550.97
2018-12-20T15:08:49.715Z,97547.45
2018-12-20T15:11:19.063Z,97545.44
2018-12-20T15:13:48.464Z,97556.44
2018-12-20T15:16:17.837Z,97560.09
2018-12-20T15:18:47.875Z,97555.87
2018-12-20T15:21:17.651Z,97554.93
2018-12-20T15:23:47.043Z,97561.81
2018-12-20T15:26:16.582Z,97568.82
2018-12-20T15:28:46.766Z,97569.86
2018-12-20T15:31:16.251Z,97585.80
2018-12-20T15:33:45.641Z,97584.45
2018-12-20T15:36:15.293Z,97585.39
2018-12-20T15:38:44.776Z,97589.41
2018-12-20T15:41:14.259Z,97593.07
2018-12-20T15:43:43.782Z,97597.87
2018-12-20T15:46:13.179Z,97609.07
2018-12-20T15:48:42.773Z,97608.61
2018-12-20T15:51:13.616Z,97613.97
2018-12-20T15:53:44.463Z,97617.02
2018-12-20T15:56:15.559Z,97616.55
2018-12-20T15:58:44.941Z,97620.98
2018-12-20T16:01:14.327Z,97623.73
2018-12-20T16:03:43.774Z,97618.30
2018-12-20T16:06:13.463Z,97624.44
2018-12-20T16:08:42.908Z,97631.99
2018-12-20T16:11:12.367Z,97628.74
2018-12-20T16:13:41.740Z,97627.34
2018-12-20T16:16:11.120Z,97633.95
2018-12-20T16:18:40.492Z,97631.63
2018-12-20T16:21:09.873Z,97625.80
2018-12-20T16:23:39.608Z,97628.38
2018-12-20T16:26:08.975Z,97624.35
2018-12-20T16:28:38.412Z,97635.02
2018-12-20T16:31:07.912Z,97634.16
2018-12-20T16:33:37.303Z,97633.18
2018-12-20T16:36:06.671Z,97640.30
2018-12-20T16:38:36.021Z,97642.11
2018-12-20T16:41:05.399Z,97637.98
2018-12-20T16:43:34.778Z,97643.75
2018-12-20T16:46:04.150Z,97643.75
2018-12-20T16:48:33.515Z,97639.63
2018-12-20T16:51:02.872Z,97640.50
2018-12-20T16:53:32.280Z,97647.21
2018-12-20T16:56:01.695Z,97655.64
2018-12-20T16:58:31.067Z,97649.69
2018-12-20T17:01:00.416Z,97651.05
2018-12-20T17:03:29.887Z,97653.73
2018-12-20T17:05:59.252Z,97651.55
2018-12-20T17:08:28.625Z,97659.97
2018-12-20T17:10:58.084Z,97659.09
2018-12-20T17:13:27.517Z,97651.55
2018-12-20T17:15:56.897Z,97662.19
2018-12-20T17:18:26.360Z,97660.74
2018-12-20T17:20:55.743Z,97661.72
2018-12-20T17:23:25.132Z,97669.77
2018-12-20T17:25:54.499Z,97663.89
2018-12-20T17:28:23.922Z,97654.03
2018-12-20T17:30:53.943Z,97658.53
2018-12-20T17:33:24.363Z,97657.75
2018-12-20T17:35:55.621Z,97658.63
2018-12-20T17:38:27.576Z,97657.85
2018-12-20T17:41:00.544Z,97656.14
2018-12-20T17:43:31.802Z,97655.27
2018-12-20T17:46:03.376Z,97666.47
2018-12-20T17:48:34.753Z,97662.55
2018-12-20T17:51:05.598Z,97659.77
2018-12-20T17:53:36.299Z,97664.66
2018-12-20T17:56:06.839Z,97668.28
2018-12-20T17:58:37.736Z,97664.19
2018-12-20T18:01:07.804Z,97663.63
2018-12-20T18:03:38.988Z,97655.57
2018-12-20T18:06:09.689Z,97659.09
2018-12-20T18:08:40.364Z,97660.44
2018-12-20T18:11:11.599Z,97652.02
2018-12-20T18:13:43.428Z,97664.97
2018-12-20T18:16:14.828Z,97657.85
2018-12-20T18:18:45.630Z,97661.78
2018-12-20T18:21:15.907Z,97661.78
2018-12-20T18:23:46.524Z,97659.50
2018-12-20T18:26:16.971Z,97663.89
2018-12-20T18:28:47.444Z,97666.98
2018-12-20T18:31:17.996Z,97673.23
2018-12-20T18:33:48.567Z,97673.23
2018-12-20T18:36:19.282Z,97679.44
2018-12-20T18:38:50.309Z,97676.75
2018-12-20T18:41:20.886Z,97679.44
2018-12-20T18:43:51.246Z,97682.99
2018-12-20T18:46:21.640Z,97685.21
2018-12-20T18:48:52.704Z,97684.74
2018-12-20T18:51:24.003Z,97690.48
2018-12-20T18:53:55.532Z,97690.78
2018-12-20T18:56:26.388Z,97687.23
2018-12-20T18:58:56.929Z,97689.44
2018-12-20T19:01:29.655Z,97688.57
2018-12-20T19:04:00.152Z,97685.98
2018-12-20T19:06:30.785Z,97685.98
2018-12-20T19:09:01.548Z,97689.04
2018-12-20T19:11:33.574Z,97691.36
2018-12-20T19:14:04.055Z,97694.91
2018-12-20T19:16:34.668Z,97701.13
2018-12-20T19:19:07.813Z,97701.63
2018-12-20T19:21:38.552Z,97703.44
2018-12-20T19:24:11.515Z,97700.28
2018-12-20T19:26:44.657Z,97698.44
2018-12-20T19:29:15.373Z,97706.89
2018-12-20T19:31:46.793Z,97705.55
2018-12-20T19:34:18.436Z,97709.17
2018-12-20T19:36:49.192Z,97718.58
2018-12-20T19:39:20.220Z,97715.89
2018-12-20T19:41:51.116Z,97721.66
2018-12-20T19:44:23.630Z,97717.17
2018-12-20T19:46:55.380Z,97715.83
2018-12-20T19:49:26.169Z,97723.38
2018-12-20T19:51:57.496Z,97721.47
2018-12-20T19:54:28.449Z,97725.44
2018-12-20T19:56:59.223Z,97728.39
2018-12-20T19:59:38.495Z,97741.66
2018-12-20T20:02:04.904Z,97739.44
2018-12-20T20:04:36.032Z,97742.53
2018-12-20T20:07:06.946Z,97744.34
2018-12-20T20:09:38.575Z,97747.59
2018-12-20T20:12:09.141Z,97739.70
2018-12-20T20:14:39.825Z,97744.59
2018-12-20T20:17:11.132Z,97742.69
2018-12-20T20:19:41.857Z,97745.21
2018-12-20T20:22:14.733Z,97741.19
2018-12-20T20:24:45.489Z,97747.96
2018-12-20T20:27:16.189Z,97745.28
2018-12-20T20:29:47.049Z,97745.28
2018-12-20T20:32:18.223Z,97745.28
2018-12-20T20:34:49.728Z,97746.55
2018-12-20T20:37:21.441Z,97754.61
2018-12-20T20:39:53.657Z,97755.39
2018-12-20T20:42:24.148Z,97754.42
2018-12-20T20:44:54.892Z,97759.32
2018-12-20T20:47:25.358Z,97762.47
2018-12-20T20:49:56.081Z,97754.42
2018-12-20T20:52:28.794Z,97760.76
2018-12-20T20:55:02.213Z,97760.76
2018-12-20T20:57:33.545Z,97758.55
2018-12-20T21:00:04.907Z,97752.70
2018-12-20T21:02:35.244Z,97750.39
2018-12-20T21:05:07.652Z,97758.75
2018-12-20T21:07:39.879Z,97752.98
2018-12-20T21:10:14.463Z,97754.32
2018-12-20T21:12:45.844Z,97773.63
2018-12-20T21:15:17.417Z,97769.09
2018-12-20T21:17:48.382Z,97776.11
2018-12-20T21:20:19.314Z,97783.70
2018-12-20T21:22:51.232Z,97785.91
2018-12-20T21:25:22.007Z,97785.41
2018-12-20T21:27:52.437Z,97790.22
2018-12-20T21:30:24.341Z,97788.88
2018-12-20T21:32:55.040Z,97783.50
2018-12-20T21:35:25.737Z,97782.66
2018-12-20T21:37:56.200Z,97783.50
2018-12-20T21:40:26.974Z,97788.41
2018-12-20T21:42:57.614Z,97785.63
2018-12-20T21:45:28.049Z,97787.94
2018-12-20T21:47:58.283Z,97784.78
2018-12-20T21:50:28.692Z,97785.25
2018-12-20T21:52:59.034Z,97780.35
2018-12-20T21:55:30.308Z,97779.98
2018-12-20T21:58:01.234Z,97779.98
2018-12-20T22:00:34.944Z,97781.33
2018-12-20T22:03:10.601Z,97781.79
2018-12-20T22:05:41.943Z,97784.08
2018-12-20T22:08:12.827Z,97792.13
2018-12-20T22:10:43.172Z,97792.23
2018-12-20T22:13:14.123Z,97796.16
2018-12-20T22:15:45.335Z,97788.66
2018-12-20T22:18:16.107Z,97786.86
2018-12-20T22:20:47.774Z,97785.14
2018-12-20T22:23:18.903Z,97779.27
2018-12-20T22:25:49.607Z,97781.48
2018-12-20T22:28:20.318Z,97777.55
2018-12-20T22:30:51.312Z,97766.19
2018-12-20T22:33:22.180Z,97780.34
2018-12-20T22:35:53.444Z,97777.24
2018-12-20T22:38:24.216Z,97771.88
2018-12-20T22:40:54.735Z,97775.03
2018-12-20T22:43:25.699Z,97775.03
2018-12-20T22:45:56.327Z,97771.97
2018-12-20T22:48:27.272Z,97783.09
2018-12-20T22:50:58.011Z,97775.53
2018-12-20T22:53:28.152Z,97772.44
2018-12-20T22:55:58.557Z,97769.28
2018-12-20T22:58:28.996Z,97774.25
2018-12-20T23:01:00.904Z,97769.75
2018-12-20T23:03:34.136Z,97768.51
2018-12-20T23:06:04.906Z,97767.63
2018-12-20T23:08:35.748Z,97775.69
2018-12-20T23:11:07.008Z,97777.50
2018-12-20T23:13:38.134Z,97780.19
2018-12-20T23:16:09.048Z,97774.45
2018-12-20T23:18:39.684Z,97768.30
2018-12-20T23:21:11.001Z,97769.17
2018-12-20T23:27:35.624Z,97759.84
2018-12-20T23:54:07.091Z,97776.02
2018-12-20T23:57:12.661Z,97779.64
